sensor_id;sensor_type;location;lat;lon;timestamp;P1;durP1;ratioP1;P2;durP2;ratioP2
47337;SDS011;33069;51.970;5.892;2022-08-21T00:01:41;13.25;;;8.15;;
47337;SDS011;33069;51.970;5.892;2022-08-21T00:04:07;14.88;;;8.50;;
47337;SDS011;33069;51.970;5.892;2022-08-21T00:06:35;10.90;;;7.90;;
47337;SDS011;33069;51.970;5.892;2022-08-21T00:09:02;13.38;;;8.40;;
47337;SDS011;33069;51.970;5.892;2022-08-21T00:11:29;16.00;;;9.18;;
47337;SDS011;33069;51.970;5.892;2022-08-21T00:13:55;18.40;;;10.18;;
47337;SDS011;33069;51.970;5.892;2022-08-21T00:16:21;16.40;;;9.25;;
47337;SDS011;33069;51.970;5.892;2022-08-21T00:18:47;17.50;;;10.80;;
47337;SDS011;33069;51.970;5.892;2022-08-21T00:21:14;16.35;;;10.05;;
47337;SDS011;33069;51.970;5.892;2022-08-21T00:23:40;18.52;;;11.10;;
47337;SDS011;33069;51.970;5.892;2022-08-21T00:26:06;12.93;;;9.13;;
47337;SDS011;33069;51.970;5.892;2022-08-21T00:28:32;13.40;;;9.88;;
47337;SDS011;33069;51.970;5.892;2022-08-21T00:30:58;14.95;;;10.48;;
47337;SDS011;33069;51.970;5.892;2022-08-21T00:33:24;19.08;;;11.40;;
47337;SDS011;33069;51.970;5.892;2022-08-21T00:35:51;14.50;;;10.18;;
47337;SDS011;33069;51.970;5.892;2022-08-21T00:38:18;17.63;;;10.63;;
47337;SDS011;33069;51.970;5.892;2022-08-21T00:40:46;22.52;;;12.95;;
47337;SDS011;33069;51.970;5.892;2022-08-21T00:43:18;20.50;;;15.40;;
47337;SDS011;33069;51.970;5.892;2022-08-21T00:45:46;19.60;;;13.30;;
47337;SDS011;33069;51.970;5.892;2022-08-21T00:48:12;19.48;;;14.05;;
47337;SDS011;33069;51.970;5.892;2022-08-21T00:50:40;18.17;;;11.45;;
47337;SDS011;33069;51.970;5.892;2022-08-21T00:53:11;13.30;;;9.18;;
47337;SDS011;33069;51.970;5.892;2022-08-21T00:55:38;17.75;;;9.98;;
47337;SDS011;33069;51.970;5.892;2022-08-21T00:58:06;15.35;;;11.02;;
47337;SDS011;33069;51.970;5.892;2022-08-21T01:00:36;14.73;;;9.95;;
47337;SDS011;33069;51.970;5.892;2022-08-21T01:03:05;15.90;;;9.50;;
47337;SDS011;33069;51.970;5.892;2022-08-21T01:05:35;10.57;;;8.95;;
47337;SDS011;33069;51.970;5.892;2022-08-21T01:08:01;16.15;;;9.38;;
47337;SDS011;33069;51.970;5.892;2022-08-21T01:10:26;12.23;;;9.32;;
47337;SDS011;33069;51.970;5.892;2022-08-21T01:12:54;14.80;;;10.20;;
47337;SDS011;33069;51.970;5.892;2022-08-21T01:15:23;14.82;;;10.30;;
47337;SDS011;33069;51.970;5.892;2022-08-21T01:17:53;19.00;;;11.45;;
47337;SDS011;33069;51.970;5.892;2022-08-21T01:20:19;16.42;;;9.05;;
47337;SDS011;33069;51.970;5.892;2022-08-21T01:22:45;19.67;;;10.98;;
47337;SDS011;33069;51.970;5.892;2022-08-21T01:25:14;14.88;;;9.40;;
47337;SDS011;33069;51.970;5.892;2022-08-21T01:27:41;13.23;;;8.18;;
47337;SDS011;33069;51.970;5.892;2022-08-21T01:30:08;17.55;;;9.40;;
47337;SDS011;33069;51.970;5.892;2022-08-21T01:32:39;11.73;;;8.18;;
47337;SDS011;33069;51.970;5.892;2022-08-21T01:35:06;16.88;;;10.50;;
47337;SDS011;33069;51.970;5.892;2022-08-21T01:37:33;16.83;;;9.02;;
47337;SDS011;33069;51.970;5.892;2022-08-21T01:39:59;13.48;;;9.35;;
47337;SDS011;33069;51.970;5.892;2022-08-21T01:42:25;19.08;;;10.38;;
47337;SDS011;33069;51.970;5.892;2022-08-21T01:44:51;13.35;;;9.02;;
47337;SDS011;33069;51.970;5.892;2022-08-21T01:47:17;14.35;;;8.77;;
47337;SDS011;33069;51.970;5.892;2022-08-21T01:49:43;18.00;;;9.07;;
47337;SDS011;33069;51.970;5.892;2022-08-21T01:52:10;14.98;;;10.10;;
47337;SDS011;33069;51.970;5.892;2022-08-21T01:54:37;15.02;;;9.50;;
47337;SDS011;33069;51.970;5.892;2022-08-21T01:57:04;17.67;;;10.18;;
47337;SDS011;33069;51.970;5.892;2022-08-21T01:59:30;16.17;;;8.80;;
47337;SDS011;33069;51.970;5.892;2022-08-21T02:01:56;11.75;;;8.60;;
47337;SDS011;33069;51.970;5.892;2022-08-21T02:04:22;15.75;;;9.57;;
47337;SDS011;33069;51.970;5.892;2022-08-21T02:06:48;13.73;;;9.80;;
47337;SDS011;33069;51.970;5.892;2022-08-21T02:09:15;13.80;;;9.18;;
47337;SDS011;33069;51.970;5.892;2022-08-21T02:11:41;16.00;;;9.60;;
47337;SDS011;33069;51.970;5.892;2022-08-21T02:14:08;15.80;;;8.90;;
47337;SDS011;33069;51.970;5.892;2022-08-21T02:16:36;13.82;;;8.60;;
47337;SDS011;33069;51.970;5.892;2022-08-21T02:19:02;18.08;;;11.20;;
47337;SDS011;33069;51.970;5.892;2022-08-21T02:21:28;18.00;;;10.38;;
47337;SDS011;33069;51.970;5.892;2022-08-21T02:23:54;14.52;;;10.05;;
47337;SDS011;33069;51.970;5.892;2022-08-21T02:26:19;18.23;;;10.02;;
47337;SDS011;33069;51.970;5.892;2022-08-21T02:28:45;17.58;;;11.45;;
47337;SDS011;33069;51.970;5.892;2022-08-21T02:31:11;16.52;;;9.73;;
47337;SDS011;33069;51.970;5.892;2022-08-21T02:33:36;16.48;;;10.32;;
47337;SDS011;33069;51.970;5.892;2022-08-21T02:36:03;16.65;;;12.18;;
47337;SDS011;33069;51.970;5.892;2022-08-21T02:38:30;18.20;;;12.63;;
47337;SDS011;33069;51.970;5.892;2022-08-21T02:41:03;23.53;;;13.80;;
47337;SDS011;33069;51.970;5.892;2022-08-21T02:43:29;15.07;;;10.77;;
47337;SDS011;33069;51.970;5.892;2022-08-21T02:45:56;19.13;;;12.93;;
47337;SDS011;33069;51.970;5.892;2022-08-21T02:48:25;22.92;;;13.45;;
47337;SDS011;33069;51.970;5.892;2022-08-21T02:50:59;17.10;;;12.10;;
47337;SDS011;33069;51.970;5.892;2022-08-21T02:53:33;26.50;;;14.82;;
47337;SDS011;33069;51.970;5.892;2022-08-21T02:56:00;21.55;;;13.35;;
47337;SDS011;33069;51.970;5.892;2022-08-21T02:58:33;18.67;;;12.38;;
47337;SDS011;33069;51.970;5.892;2022-08-21T03:01:02;16.95;;;13.65;;
47337;SDS011;33069;51.970;5.892;2022-08-21T03:03:28;17.17;;;12.40;;
47337;SDS011;33069;51.970;5.892;2022-08-21T03:05:54;17.60;;;13.40;;
47337;SDS011;33069;51.970;5.892;2022-08-21T03:08:20;26.35;;;13.05;;
47337;SDS011;33069;51.970;5.892;2022-08-21T03:10:51;18.67;;;12.93;;
47337;SDS011;33069;51.970;5.892;2022-08-21T03:13:17;26.10;;;14.73;;
47337;SDS011;33069;51.970;5.892;2022-08-21T03:15:45;20.25;;;13.88;;
47337;SDS011;33069;51.970;5.892;2022-08-21T03:18:11;23.10;;;14.60;;
47337;SDS011;33069;51.970;5.892;2022-08-21T03:20:38;19.75;;;13.75;;
47337;SDS011;33069;51.970;5.892;2022-08-21T03:23:05;18.73;;;12.65;;
47337;SDS011;33069;51.970;5.892;2022-08-21T03:25:32;23.85;;;13.95;;
47337;SDS011;33069;51.970;5.892;2022-08-21T03:27:59;21.13;;;14.45;;
47337;SDS011;33069;51.970;5.892;2022-08-21T03:30:26;24.60;;;14.88;;
47337;SDS011;33069;51.970;5.892;2022-08-21T03:32:53;19.17;;;13.75;;
47337;SDS011;33069;51.970;5.892;2022-08-21T03:35:19;26.38;;;16.27;;
47337;SDS011;33069;51.970;5.892;2022-08-21T03:37:45;25.98;;;17.40;;
47337;SDS011;33069;51.970;5.892;2022-08-21T03:40:12;23.17;;;16.40;;
47337;SDS011;33069;51.970;5.892;2022-08-21T03:42:39;23.50;;;14.50;;
47337;SDS011;33069;51.970;5.892;2022-08-21T03:45:05;29.63;;;16.92;;
47337;SDS011;33069;51.970;5.892;2022-08-21T03:47:32;25.38;;;16.92;;
47337;SDS011;33069;51.970;5.892;2022-08-21T03:49:58;19.73;;;15.52;;
47337;SDS011;33069;51.970;5.892;2022-08-21T03:52:24;20.35;;;15.10;;
47337;SDS011;33069;51.970;5.892;2022-08-21T03:54:50;26.55;;;15.95;;
47337;SDS011;33069;51.970;5.892;2022-08-21T03:57:16;29.05;;;15.77;;
47337;SDS011;33069;51.970;5.892;2022-08-21T03:59:42;24.27;;;15.63;;
47337;SDS011;33069;51.970;5.892;2022-08-21T04:02:08;28.30;;;17.25;;
47337;SDS011;33069;51.970;5.892;2022-08-21T04:04:34;20.92;;;16.02;;
47337;SDS011;33069;51.970;5.892;2022-08-21T04:07:00;23.30;;;15.77;;
47337;SDS011;33069;51.970;5.892;2022-08-21T04:09:27;25.35;;;16.90;;
47337;SDS011;33069;51.970;5.892;2022-08-21T04:11:52;23.27;;;16.25;;
47337;SDS011;33069;51.970;5.892;2022-08-21T04:14:18;25.20;;;16.67;;
47337;SDS011;33069;51.970;5.892;2022-08-21T04:16:44;31.33;;;21.23;;
47337;SDS011;33069;51.970;5.892;2022-08-21T04:19:10;23.95;;;18.48;;
47337;SDS011;33069;51.970;5.892;2022-08-21T04:21:41;27.17;;;19.83;;
47337;SDS011;33069;51.970;5.892;2022-08-21T04:24:08;32.42;;;20.63;;
47337;SDS011;33069;51.970;5.892;2022-08-21T04:26:35;24.90;;;18.42;;
47337;SDS011;33069;51.970;5.892;2022-08-21T04:29:02;29.73;;;20.48;;
47337;SDS011;33069;51.970;5.892;2022-08-21T04:31:33;32.33;;;22.60;;
47337;SDS011;33069;51.970;5.892;2022-08-21T04:34:01;27.45;;;18.17;;
47337;SDS011;33069;51.970;5.892;2022-08-21T04:36:28;26.50;;;18.48;;
47337;SDS011;33069;51.970;5.892;2022-08-21T04:38:54;36.90;;;20.60;;
47337;SDS011;33069;51.970;5.892;2022-08-21T04:41:19;39.80;;;26.35;;
47337;SDS011;33069;51.970;5.892;2022-08-21T04:43:45;37.88;;;26.85;;
47337;SDS011;33069;51.970;5.892;2022-08-21T04:46:11;32.65;;;23.13;;
47337;SDS011;33069;51.970;5.892;2022-08-21T04:48:37;29.08;;;20.20;;
47337;SDS011;33069;51.970;5.892;2022-08-21T04:51:06;27.08;;;20.70;;
47337;SDS011;33069;51.970;5.892;2022-08-21T04:53:52;23.95;;;18.20;;
47337;SDS011;33069;51.970;5.892;2022-08-21T04:56:31;31.08;;;19.77;;
47337;SDS011;33069;51.970;5.892;2022-08-21T04:59:02;29.13;;;21.15;;
47337;SDS011;33069;51.970;5.892;2022-08-21T05:01:31;27.42;;;19.83;;
47337;SDS011;33069;51.970;5.892;2022-08-21T05:04:00;26.60;;;19.67;;
47337;SDS011;33069;51.970;5.892;2022-08-21T05:06:30;30.10;;;21.23;;
47337;SDS011;33069;51.970;5.892;2022-08-21T05:08:59;30.80;;;19.05;;
47337;SDS011;33069;51.970;5.892;2022-08-21T05:11:26;27.17;;;20.95;;
47337;SDS011;33069;51.970;5.892;2022-08-21T05:13:53;23.48;;;19.27;;
47337;SDS011;33069;51.970;5.892;2022-08-21T05:16:19;28.13;;;19.23;;
47337;SDS011;33069;51.970;5.892;2022-08-21T05:18:45;27.05;;;18.25;;
47337;SDS011;33069;51.970;5.892;2022-08-21T05:21:10;23.75;;;17.63;;
47337;SDS011;33069;51.970;5.892;2022-08-21T05:23:36;24.70;;;19.40;;
47337;SDS011;33069;51.970;5.892;2022-08-21T05:26:02;21.25;;;17.35;;
47337;SDS011;33069;51.970;5.892;2022-08-21T05:28:29;26.40;;;17.95;;
47337;SDS011;33069;51.970;5.892;2022-08-21T05:30:56;20.52;;;15.15;;
47337;SDS011;33069;51.970;5.892;2022-08-21T05:33:21;18.52;;;14.65;;
47337;SDS011;33069;51.970;5.892;2022-08-21T05:35:49;22.13;;;16.38;;
47337;SDS011;33069;51.970;5.892;2022-08-21T05:38:16;28.40;;;15.02;;
47337;SDS011;33069;51.970;5.892;2022-08-21T05:40:43;25.33;;;14.18;;
47337;SDS011;33069;51.970;5.892;2022-08-21T05:43:09;25.70;;;14.63;;
47337;SDS011;33069;51.970;5.892;2022-08-21T05:45:35;20.25;;;14.65;;
47337;SDS011;33069;51.970;5.892;2022-08-21T05:48:07;21.67;;;16.23;;
47337;SDS011;33069;51.970;5.892;2022-08-21T05:50:34;22.40;;;15.50;;
47337;SDS011;33069;51.970;5.892;2022-08-21T05:53:02;21.50;;;15.80;;
47337;SDS011;33069;51.970;5.892;2022-08-21T05:55:28;22.33;;;15.10;;
47337;SDS011;33069;51.970;5.892;2022-08-21T05:57:54;21.73;;;16.08;;
47337;SDS011;33069;51.970;5.892;2022-08-21T06:00:19;21.52;;;16.83;;
47337;SDS011;33069;51.970;5.892;2022-08-21T06:02:48;23.15;;;16.95;;
47337;SDS011;33069;51.970;5.892;2022-08-21T06:05:15;21.35;;;15.88;;
47337;SDS011;33069;51.970;5.892;2022-08-21T06:07:42;23.42;;;16.77;;
47337;SDS011;33069;51.970;5.892;2022-08-21T06:10:08;22.83;;;16.95;;
47337;SDS011;33069;51.970;5.892;2022-08-21T06:12:34;25.83;;;17.70;;
47337;SDS011;33069;51.970;5.892;2022-08-21T06:15:00;25.60;;;17.90;;
47337;SDS011;33069;51.970;5.892;2022-08-21T06:17:25;22.33;;;16.80;;
47337;SDS011;33069;51.970;5.892;2022-08-21T06:19:51;25.17;;;16.45;;
47337;SDS011;33069;51.970;5.892;2022-08-21T06:22:18;30.00;;;16.70;;
47337;SDS011;33069;51.970;5.892;2022-08-21T06:24:45;21.92;;;16.10;;
47337;SDS011;33069;51.970;5.892;2022-08-21T06:27:11;19.15;;;15.88;;
47337;SDS011;33069;51.970;5.892;2022-08-21T06:29:36;25.80;;;16.20;;
47337;SDS011;33069;51.970;5.892;2022-08-21T06:32:03;22.23;;;15.45;;
47337;SDS011;33069;51.970;5.892;2022-08-21T06:34:31;24.95;;;15.10;;
47337;SDS011;33069;51.970;5.892;2022-08-21T06:37:01;23.85;;;14.85;;
47337;SDS011;33069;51.970;5.892;2022-08-21T06:39:26;26.20;;;14.15;;
47337;SDS011;33069;51.970;5.892;2022-08-21T06:41:52;23.13;;;14.20;;
47337;SDS011;33069;51.970;5.892;2022-08-21T06:44:18;20.05;;;13.57;;
47337;SDS011;33069;51.970;5.892;2022-08-21T06:46:43;25.73;;;13.68;;
47337;SDS011;33069;51.970;5.892;2022-08-21T06:49:09;25.40;;;13.30;;
47337;SDS011;33069;51.970;5.892;2022-08-21T06:51:35;25.48;;;12.93;;
47337;SDS011;33069;51.970;5.892;2022-08-21T06:54:00;19.75;;;13.43;;
47337;SDS011;33069;51.970;5.892;2022-08-21T06:56:26;22.50;;;13.55;;
47337;SDS011;33069;51.970;5.892;2022-08-21T06:58:52;23.85;;;12.43;;
47337;SDS011;33069;51.970;5.892;2022-08-21T07:01:19;26.00;;;14.15;;
47337;SDS011;33069;51.970;5.892;2022-08-21T07:03:49;21.30;;;12.18;;
47337;SDS011;33069;51.970;5.892;2022-08-21T07:06:15;21.63;;;12.50;;
47337;SDS011;33069;51.970;5.892;2022-08-21T07:08:42;26.92;;;13.00;;
47337;SDS011;33069;51.970;5.892;2022-08-21T07:11:12;20.88;;;12.75;;
47337;SDS011;33069;51.970;5.892;2022-08-21T07:13:43;20.92;;;12.95;;
47337;SDS011;33069;51.970;5.892;2022-08-21T07:16:09;21.67;;;12.07;;
47337;SDS011;33069;51.970;5.892;2022-08-21T07:18:35;20.35;;;11.40;;
47337;SDS011;33069;51.970;5.892;2022-08-21T07:21:02;24.40;;;12.65;;
47337;SDS011;33069;51.970;5.892;2022-08-21T07:23:46;20.25;;;11.85;;
47337;SDS011;33069;51.970;5.892;2022-08-21T07:26:14;22.20;;;11.30;;
47337;SDS011;33069;51.970;5.892;2022-08-21T07:28:42;19.90;;;11.23;;
47337;SDS011;33069;51.970;5.892;2022-08-21T07:31:09;18.17;;;11.02;;
47337;SDS011;33069;51.970;5.892;2022-08-21T07:33:38;24.73;;;12.57;;
47337;SDS011;33069;51.970;5.892;2022-08-21T07:36:05;24.23;;;12.07;;
47337;SDS011;33069;51.970;5.892;2022-08-21T07:38:31;24.95;;;11.93;;
47337;SDS011;33069;51.970;5.892;2022-08-21T07:40:57;23.90;;;12.52;;
47337;SDS011;33069;51.970;5.892;2022-08-21T07:43:25;19.67;;;11.50;;
47337;SDS011;33069;51.970;5.892;2022-08-21T07:45:51;26.40;;;10.82;;
47337;SDS011;33069;51.970;5.892;2022-08-21T07:48:19;20.30;;;11.20;;
47337;SDS011;33069;51.970;5.892;2022-08-21T07:50:45;29.52;;;12.32;;
47337;SDS011;33069;51.970;5.892;2022-08-21T07:53:11;19.77;;;10.75;;
47337;SDS011;33069;51.970;5.892;2022-08-21T07:55:36;25.15;;;11.70;;
47337;SDS011;33069;51.970;5.892;2022-08-21T07:58:02;25.80;;;12.05;;
47337;SDS011;33069;51.970;5.892;2022-08-21T08:00:29;25.90;;;11.70;;
47337;SDS011;33069;51.970;5.892;2022-08-21T08:02:56;18.33;;;10.70;;
47337;SDS011;33069;51.970;5.892;2022-08-21T08:05:25;17.60;;;9.77;;
47337;SDS011;33069;51.970;5.892;2022-08-21T08:07:53;20.52;;;10.13;;
47337;SDS011;33069;51.970;5.892;2022-08-21T08:10:19;24.05;;;11.50;;
47337;SDS011;33069;51.970;5.892;2022-08-21T08:12:46;35.22;;;10.70;;
47337;SDS011;33069;51.970;5.892;2022-08-21T08:15:14;22.33;;;11.02;;
47337;SDS011;33069;51.970;5.892;2022-08-21T08:17:42;25.08;;;9.95;;
47337;SDS011;33069;51.970;5.892;2022-08-21T08:20:09;22.80;;;10.20;;
47337;SDS011;33069;51.970;5.892;2022-08-21T08:22:37;25.92;;;10.10;;
47337;SDS011;33069;51.970;5.892;2022-08-21T08:25:04;29.35;;;10.73;;
47337;SDS011;33069;51.970;5.892;2022-08-21T08:27:31;26.70;;;10.50;;
47337;SDS011;33069;51.970;5.892;2022-08-21T08:29:57;21.33;;;10.13;;
47337;SDS011;33069;51.970;5.892;2022-08-21T08:32:23;24.67;;;9.32;;
47337;SDS011;33069;51.970;5.892;2022-08-21T08:34:49;20.05;;;10.45;;
47337;SDS011;33069;51.970;5.892;2022-08-21T08:37:17;20.70;;;9.63;;
47337;SDS011;33069;51.970;5.892;2022-08-21T08:39:43;25.08;;;9.27;;
47337;SDS011;33069;51.970;5.892;2022-08-21T08:42:21;21.00;;;8.50;;
47337;SDS011;33069;51.970;5.892;2022-08-21T08:44:55;19.05;;;8.27;;
47337;SDS011;33069;51.970;5.892;2022-08-21T08:47:27;23.02;;;9.30;;
47337;SDS011;33069;51.970;5.892;2022-08-21T08:52:29;26.55;;;10.45;;
47337;SDS011;33069;51.970;5.892;2022-08-21T08:55:07;19.23;;;8.23;;
47337;SDS011;33069;51.970;5.892;2022-08-21T08:57:35;24.23;;;9.20;;
47337;SDS011;33069;51.970;5.892;2022-08-21T09:00:09;24.67;;;8.20;;
47337;SDS011;33069;51.970;5.892;2022-08-21T09:02:38;21.23;;;9.00;;
47337;SDS011;33069;51.970;5.892;2022-08-21T09:05:05;20.17;;;8.07;;
47337;SDS011;33069;51.970;5.892;2022-08-21T09:10:37;19.58;;;6.78;;
47337;SDS011;33069;51.970;5.892;2022-08-21T09:16:13;17.02;;;6.75;;
47337;SDS011;33069;51.970;5.892;2022-08-21T09:19:03;20.92;;;6.20;;
47337;SDS011;33069;51.970;5.892;2022-08-21T09:21:49;18.65;;;6.22;;
47337;SDS011;33069;51.970;5.892;2022-08-21T09:24:48;16.00;;;5.30;;
47337;SDS011;33069;51.970;5.892;2022-08-21T09:27:19;17.23;;;3.63;;
47337;SDS011;33069;51.970;5.892;2022-08-21T09:29:48;15.55;;;5.38;;
47337;SDS011;33069;51.970;5.892;2022-08-21T09:32:24;13.95;;;4.28;;
47337;SDS011;33069;51.970;5.892;2022-08-21T09:35:03;14.63;;;5.45;;
47337;SDS011;33069;51.970;5.892;2022-08-21T09:37:44;15.68;;;4.85;;
47337;SDS011;33069;51.970;5.892;2022-08-21T09:40:39;14.55;;;4.43;;
47337;SDS011;33069;51.970;5.892;2022-08-21T09:45:36;16.23;;;5.68;;
47337;SDS011;33069;51.970;5.892;2022-08-21T09:48:18;15.10;;;5.60;;
47337;SDS011;33069;51.970;5.892;2022-08-21T09:50:50;19.35;;;4.70;;
47337;SDS011;33069;51.970;5.892;2022-08-21T09:53:21;11.32;;;4.00;;
47337;SDS011;33069;51.970;5.892;2022-08-21T09:58:40;15.80;;;4.45;;
47337;SDS011;33069;51.970;5.892;2022-08-21T10:01:11;13.77;;;4.60;;
47337;SDS011;33069;51.970;5.892;2022-08-21T10:03:40;13.85;;;4.18;;
47337;SDS011;33069;51.970;5.892;2022-08-21T10:06:06;14.65;;;3.50;;
47337;SDS011;33069;51.970;5.892;2022-08-21T10:08:39;12.25;;;3.13;;
47337;SDS011;33069;51.970;5.892;2022-08-21T10:11:07;10.48;;;3.55;;
47337;SDS011;33069;51.970;5.892;2022-08-21T10:22:02;11.95;;;3.10;;
47337;SDS011;33069;51.970;5.892;2022-08-21T10:24:58;10.93;;;3.25;;
47337;SDS011;33069;51.970;5.892;2022-08-21T10:27:51;8.52;;;3.03;;
47337;SDS011;33069;51.970;5.892;2022-08-21T10:44:09;7.18;;;2.22;;
47337;SDS011;33069;51.970;5.892;2022-08-21T10:46:52;11.32;;;2.20;;
47337;SDS011;33069;51.970;5.892;2022-08-21T10:55:02;9.55;;;2.67;;
47337;SDS011;33069;51.970;5.892;2022-08-21T11:00:09;12.95;;;3.53;;
47337;SDS011;33069;51.970;5.892;2022-08-21T11:03:28;9.90;;;2.38;;
47337;SDS011;33069;51.970;5.892;2022-08-21T11:05:38;8.85;;;2.45;;
47337;SDS011;33069;51.970;5.892;2022-08-21T11:08:22;9.85;;;3.20;;
47337;SDS011;33069;51.970;5.892;2022-08-21T11:11:03;7.97;;;2.75;;
47337;SDS011;33069;51.970;5.892;2022-08-21T11:13:44;8.10;;;2.30;;
47337;SDS011;33069;51.970;5.892;2022-08-21T11:16:18;8.20;;;2.83;;
47337;SDS011;33069;51.970;5.892;2022-08-21T11:18:55;8.68;;;2.20;;
47337;SDS011;33069;51.970;5.892;2022-08-21T11:24:29;6.75;;;2.00;;
47337;SDS011;33069;51.970;5.892;2022-08-21T11:29:44;6.30;;;2.20;;
47337;SDS011;33069;51.970;5.892;2022-08-21T11:42:55;9.07;;;2.40;;
47337;SDS011;33069;51.970;5.892;2022-08-21T11:50:42;9.23;;;2.30;;
47337;SDS011;33069;51.970;5.892;2022-08-21T11:53:19;11.07;;;2.63;;
47337;SDS011;33069;51.970;5.892;2022-08-21T11:56:05;6.68;;;2.28;;
47337;SDS011;33069;51.970;5.892;2022-08-21T11:58:43;10.10;;;2.40;;
47337;SDS011;33069;51.970;5.892;2022-08-21T12:01:17;9.60;;;2.88;;
47337;SDS011;33069;51.970;5.892;2022-08-21T12:06:32;9.10;;;2.53;;
47337;SDS011;33069;51.970;5.892;2022-08-21T12:09:04;10.35;;;2.80;;
47337;SDS011;33069;51.970;5.892;2022-08-21T12:14:24;10.80;;;2.33;;
47337;SDS011;33069;51.970;5.892;2022-08-21T12:17:06;7.53;;;2.00;;
47337;SDS011;33069;51.970;5.892;2022-08-21T12:19:41;8.00;;;2.38;;
47337;SDS011;33069;51.970;5.892;2022-08-21T12:22:11;9.35;;;2.08;;
47337;SDS011;33069;51.970;5.892;2022-08-21T12:24:40;12.18;;;2.47;;
47337;SDS011;33069;51.970;5.892;2022-08-21T12:27:17;6.10;;;2.33;;
47337;SDS011;33069;51.970;5.892;2022-08-21T12:29:55;9.50;;;2.10;;
47337;SDS011;33069;51.970;5.892;2022-08-21T12:35:11;5.88;;;2.17;;
47337;SDS011;33069;51.970;5.892;2022-08-21T12:37:43;7.38;;;1.90;;
47337;SDS011;33069;51.970;5.892;2022-08-21T12:42:48;6.60;;;2.25;;
47337;SDS011;33069;51.970;5.892;2022-08-21T12:45:22;8.68;;;2.80;;
47337;SDS011;33069;51.970;5.892;2022-08-21T12:47:56;10.23;;;2.45;;
47337;SDS011;33069;51.970;5.892;2022-08-21T12:50:29;7.07;;;2.15;;
47337;SDS011;33069;51.970;5.892;2022-08-21T12:56:24;6.72;;;2.00;;
47337;SDS011;33069;51.970;5.892;2022-08-21T12:59:02;8.45;;;2.28;;
47337;SDS011;33069;51.970;5.892;2022-08-21T13:01:31;8.30;;;3.08;;
47337;SDS011;33069;51.970;5.892;2022-08-21T13:04:06;5.90;;;2.53;;
47337;SDS011;33069;51.970;5.892;2022-08-21T13:06:45;6.43;;;2.55;;
47337;SDS011;33069;51.970;5.892;2022-08-21T13:09:18;9.13;;;2.08;;
47337;SDS011;33069;51.970;5.892;2022-08-21T13:11:47;5.78;;;2.15;;
47337;SDS011;33069;51.970;5.892;2022-08-21T13:14:17;5.57;;;1.73;;
47337;SDS011;33069;51.970;5.892;2022-08-21T13:16:56;6.25;;;1.83;;
47337;SDS011;33069;51.970;5.892;2022-08-21T13:19:23;8.38;;;2.40;;
47337;SDS011;33069;51.970;5.892;2022-08-21T13:21:50;5.22;;;1.70;;
47337;SDS011;33069;51.970;5.892;2022-08-21T13:26:51;5.80;;;2.03;;
47337;SDS011;33069;51.970;5.892;2022-08-21T13:29:19;6.80;;;2.00;;
47337;SDS011;33069;51.970;5.892;2022-08-21T13:31:54;7.25;;;2.03;;
47337;SDS011;33069;51.970;5.892;2022-08-21T13:34:22;7.28;;;2.40;;
47337;SDS011;33069;51.970;5.892;2022-08-21T13:36:51;6.45;;;1.83;;
47337;SDS011;33069;51.970;5.892;2022-08-21T13:39:21;9.60;;;2.08;;
47337;SDS011;33069;51.970;5.892;2022-08-21T13:41:49;4.55;;;1.90;;
47337;SDS011;33069;51.970;5.892;2022-08-21T13:44:20;7.43;;;2.00;;
47337;SDS011;33069;51.970;5.892;2022-08-21T13:46:51;5.90;;;2.00;;
47337;SDS011;33069;51.970;5.892;2022-08-21T13:49:20;8.45;;;2.28;;
47337;SDS011;33069;51.970;5.892;2022-08-21T13:51:51;7.60;;;2.20;;
47337;SDS011;33069;51.970;5.892;2022-08-21T13:54:29;9.98;;;2.38;;
47337;SDS011;33069;51.970;5.892;2022-08-21T13:57:00;6.85;;;2.30;;
47337;SDS011;33069;51.970;5.892;2022-08-21T13:59:27;7.22;;;2.40;;
47337;SDS011;33069;51.970;5.892;2022-08-21T14:01:55;5.82;;;1.98;;
47337;SDS011;33069;51.970;5.892;2022-08-21T14:04:59;7.27;;;2.03;;
47337;SDS011;33069;51.970;5.892;2022-08-21T14:07:46;7.30;;;2.42;;
47337;SDS011;33069;51.970;5.892;2022-08-21T14:10:16;6.90;;;1.90;;
47337;SDS011;33069;51.970;5.892;2022-08-21T14:12:51;7.70;;;1.83;;
47337;SDS011;33069;51.970;5.892;2022-08-21T14:15:23;7.63;;;2.10;;
47337;SDS011;33069;51.970;5.892;2022-08-21T14:20:29;7.72;;;2.03;;
47337;SDS011;33069;51.970;5.892;2022-08-21T14:22:58;8.50;;;2.42;;
47337;SDS011;33069;51.970;5.892;2022-08-21T14:27:59;6.20;;;2.05;;
47337;SDS011;33069;51.970;5.892;2022-08-21T14:30:35;6.97;;;2.55;;
47337;SDS011;33069;51.970;5.892;2022-08-21T14:33:04;5.25;;;2.22;;
47337;SDS011;33069;51.970;5.892;2022-08-21T14:35:35;8.23;;;2.40;;
47337;SDS011;33069;51.970;5.892;2022-08-21T14:38:01;5.57;;;2.15;;
47337;SDS011;33069;51.970;5.892;2022-08-21T14:40:26;4.28;;;2.00;;
47337;SDS011;33069;51.970;5.892;2022-08-21T14:42:52;7.07;;;2.30;;
47337;SDS011;33069;51.970;5.892;2022-08-21T14:45:21;7.20;;;2.22;;
47337;SDS011;33069;51.970;5.892;2022-08-21T14:47:51;8.98;;;2.28;;
47337;SDS011;33069;51.970;5.892;2022-08-21T14:50:17;8.23;;;2.17;;
47337;SDS011;33069;51.970;5.892;2022-08-21T14:52:43;8.80;;;2.17;;
47337;SDS011;33069;51.970;5.892;2022-08-21T14:55:11;7.10;;;1.95;;
47337;SDS011;33069;51.970;5.892;2022-08-21T14:57:39;6.70;;;2.20;;
47337;SDS011;33069;51.970;5.892;2022-08-21T15:00:08;11.43;;;2.47;;
47337;SDS011;33069;51.970;5.892;2022-08-21T15:02:35;10.07;;;2.22;;
47337;SDS011;33069;51.970;5.892;2022-08-21T15:05:01;5.72;;;1.70;;
47337;SDS011;33069;51.970;5.892;2022-08-21T15:07:27;10.40;;;2.90;;
47337;SDS011;33069;51.970;5.892;2022-08-21T15:09:52;8.50;;;2.10;;
47337;SDS011;33069;51.970;5.892;2022-08-21T15:12:18;6.72;;;2.10;;
47337;SDS011;33069;51.970;5.892;2022-08-21T15:14:44;5.68;;;1.95;;
47337;SDS011;33069;51.970;5.892;2022-08-21T15:17:10;7.90;;;2.15;;
47337;SDS011;33069;51.970;5.892;2022-08-21T15:19:37;4.80;;;2.13;;
47337;SDS011;33069;51.970;5.892;2022-08-21T15:22:03;4.75;;;1.88;;
47337;SDS011;33069;51.970;5.892;2022-08-21T15:24:29;7.63;;;2.30;;
47337;SDS011;33069;51.970;5.892;2022-08-21T15:26:55;5.95;;;2.20;;
47337;SDS011;33069;51.970;5.892;2022-08-21T15:29:23;6.18;;;2.15;;
47337;SDS011;33069;51.970;5.892;2022-08-21T15:31:53;7.60;;;2.30;;
47337;SDS011;33069;51.970;5.892;2022-08-21T15:34:25;6.85;;;1.85;;
47337;SDS011;33069;51.970;5.892;2022-08-21T15:36:52;6.80;;;1.92;;
47337;SDS011;33069;51.970;5.892;2022-08-21T15:39:18;6.40;;;1.70;;
47337;SDS011;33069;51.970;5.892;2022-08-21T15:41:44;6.70;;;1.83;;
47337;SDS011;33069;51.970;5.892;2022-08-21T15:44:10;7.75;;;2.10;;
47337;SDS011;33069;51.970;5.892;2022-08-21T15:46:37;6.10;;;1.92;;
47337;SDS011;33069;51.970;5.892;2022-08-21T15:49:04;4.80;;;1.80;;
47337;SDS011;33069;51.970;5.892;2022-08-21T15:51:30;9.63;;;2.10;;
47337;SDS011;33069;51.970;5.892;2022-08-21T15:53:55;8.73;;;2.60;;
47337;SDS011;33069;51.970;5.892;2022-08-21T15:56:25;6.25;;;1.90;;
47337;SDS011;33069;51.970;5.892;2022-08-21T15:58:54;8.25;;;2.00;;
47337;SDS011;33069;51.970;5.892;2022-08-21T16:01:25;7.47;;;2.38;;
47337;SDS011;33069;51.970;5.892;2022-08-21T16:03:52;9.18;;;2.00;;
47337;SDS011;33069;51.970;5.892;2022-08-21T16:06:19;6.82;;;2.00;;
47337;SDS011;33069;51.970;5.892;2022-08-21T16:08:45;6.88;;;2.00;;
47337;SDS011;33069;51.970;5.892;2022-08-21T16:11:11;7.10;;;2.28;;